<?xml version="1.0" encoding="UTF-8" standalone="no" ?>
<gpx xmlns="http://www.topografix.com/GPX/1/1" xmlns:xsi="http://www.w3.org/2001/XMLSchema-instance" xsi:schemaLocation="http://www.topografix.com/GPX/1/1 http://www.topografix.com/GPX/1/1/gpx.xsd" version="1.1" creator="VisuGPX - https://www.visugpx.com">
  <metadata>
    <name>CARREFOUR DE LUYNES 8KMS</name>
  </metadata>
  <trk>
    <name><![CDATA[CARREFOUR DE LUYNES 8KMS]]></name>
    <trkseg>
      <trkpt lat="48.59173" lon="1.96616">
        <ele>107.81</ele>
        <time>2018-02-18T08:44:19Z</time>
      </trkpt>
      <trkpt lat="48.59171" lon="1.96613">
        <ele>107.32</ele>
        <time>2018-02-18T08:44:37Z</time>
      </trkpt>
      <trkpt lat="48.5917" lon="1.96613">
        <ele>107.81</ele>
        <time>2018-02-18T08:44:50Z</time>
      </trkpt>
      <trkpt lat="48.5917" lon="1.96612">
        <ele>107.32</ele>
        <time>2018-02-18T08:45:05Z</time>
      </trkpt>
      <trkpt lat="48.5917" lon="1.9661">
        <ele>107.81</ele>
        <time>2018-02-18T08:45:21Z</time>
      </trkpt>
      <trkpt lat="48.5917" lon="1.96609">
        <ele>107.81</ele>
        <time>2018-02-18T08:45:33Z</time>
      </trkpt>
      <trkpt lat="48.59175" lon="1.96607">
        <ele>107.81</ele>
        <time>2018-02-18T08:45:55Z</time>
      </trkpt>
      <trkpt lat="48.59182" lon="1.96599">
        <ele>108.29</ele>
        <time>2018-02-18T08:46:09Z</time>
      </trkpt>
      <trkpt lat="48.59193" lon="1.96599">
        <ele>108.77</ele>
        <time>2018-02-18T08:46:22Z</time>
      </trkpt>
      <trkpt lat="48.59204" lon="1.966">
        <ele>109.73</ele>
        <time>2018-02-18T08:46:32Z</time>
      </trkpt>
      <trkpt lat="48.59208" lon="1.966">
        <ele>109.73</ele>
        <time>2018-02-18T08:46:35Z</time>
      </trkpt>
      <trkpt lat="48.59213" lon="1.96597">
        <ele>111.17</ele>
        <time>2018-02-18T08:46:39Z</time>
      </trkpt>
      <trkpt lat="48.59223" lon="1.96601">
        <ele>111.17</ele>
        <time>2018-02-18T08:46:46Z</time>
      </trkpt>
      <trkpt lat="48.59232" lon="1.96603">
        <ele>111.65</ele>
        <time>2018-02-18T08:46:52Z</time>
      </trkpt>
      <trkpt lat="48.5925" lon="1.96621">
        <ele>113.09</ele>
        <time>2018-02-18T08:47:07Z</time>
      </trkpt>
      <trkpt lat="48.59263" lon="1.96632">
        <ele>114.53</ele>
        <time>2018-02-18T08:47:18Z</time>
      </trkpt>
      <trkpt lat="48.59282" lon="1.96639">
        <ele>116.94</ele>
        <time>2018-02-18T08:47:33Z</time>
      </trkpt>
      <trkpt lat="48.59288" lon="1.96641">
        <ele>117.42</ele>
        <time>2018-02-18T08:47:37Z</time>
      </trkpt>
      <trkpt lat="48.59305" lon="1.96649">
        <ele>119.82</ele>
        <time>2018-02-18T08:47:51Z</time>
      </trkpt>
      <trkpt lat="48.59318" lon="1.96652">
        <ele>121.74</ele>
        <time>2018-02-18T08:48:03Z</time>
      </trkpt>
      <trkpt lat="48.59324" lon="1.96653">
        <ele>122.22</ele>
        <time>2018-02-18T08:48:08Z</time>
      </trkpt>
      <trkpt lat="48.59341" lon="1.9666">
        <ele>125.11</ele>
        <time>2018-02-18T08:48:21Z</time>
      </trkpt>
      <trkpt lat="48.59355" lon="1.96669">
        <ele>128.47</ele>
        <time>2018-02-18T08:48:33Z</time>
      </trkpt>
      <trkpt lat="48.59357" lon="1.96669">
        <ele>128.47</ele>
        <time>2018-02-18T08:48:34Z</time>
      </trkpt>
      <trkpt lat="48.59369" lon="1.96674">
        <ele>131.84</ele>
        <time>2018-02-18T08:48:45Z</time>
      </trkpt>
      <trkpt lat="48.59374" lon="1.96675">
        <ele>132.8</ele>
        <time>2018-02-18T08:48:49Z</time>
      </trkpt>
      <trkpt lat="48.59393" lon="1.96682">
        <ele>134.24</ele>
        <time>2018-02-18T08:49:05Z</time>
      </trkpt>
      <trkpt lat="48.59395" lon="1.96685">
        <ele>134.72</ele>
        <time>2018-02-18T08:49:07Z</time>
      </trkpt>
      <trkpt lat="48.59403" lon="1.9669">
        <ele>135.2</ele>
        <time>2018-02-18T08:49:22Z</time>
      </trkpt>
      <trkpt lat="48.59401" lon="1.96693">
        <ele>135.2</ele>
        <time>2018-02-18T08:49:35Z</time>
      </trkpt>
      <trkpt lat="48.59396" lon="1.96701">
        <ele>135.2</ele>
        <time>2018-02-18T08:49:40Z</time>
      </trkpt>
      <trkpt lat="48.59386" lon="1.96724">
        <ele>135.68</ele>
        <time>2018-02-18T08:49:53Z</time>
      </trkpt>
      <trkpt lat="48.59379" lon="1.96742">
        <ele>136.64</ele>
        <time>2018-02-18T08:50:03Z</time>
      </trkpt>
      <trkpt lat="48.59377" lon="1.96747">
        <ele>136.64</ele>
        <time>2018-02-18T08:50:06Z</time>
      </trkpt>
      <trkpt lat="48.59368" lon="1.96766">
        <ele>137.13</ele>
        <time>2018-02-18T08:50:17Z</time>
      </trkpt>
      <trkpt lat="48.59358" lon="1.96786">
        <ele>136.64</ele>
        <time>2018-02-18T08:50:28Z</time>
      </trkpt>
      <trkpt lat="48.59355" lon="1.96793">
        <ele>136.16</ele>
        <time>2018-02-18T08:50:32Z</time>
      </trkpt>
      <trkpt lat="48.5934" lon="1.96822">
        <ele>133.76</ele>
        <time>2018-02-18T08:50:45Z</time>
      </trkpt>
      <trkpt lat="48.59334" lon="1.96835">
        <ele>131.84</ele>
        <time>2018-02-18T08:50:55Z</time>
      </trkpt>
      <trkpt lat="48.59328" lon="1.9685">
        <ele>130.88</ele>
        <time>2018-02-18T08:51:05Z</time>
      </trkpt>
      <trkpt lat="48.59323" lon="1.96862">
        <ele>128.47</ele>
        <time>2018-02-18T08:51:16Z</time>
      </trkpt>
      <trkpt lat="48.59317" lon="1.96878">
        <ele>126.07</ele>
        <time>2018-02-18T08:51:26Z</time>
      </trkpt>
      <trkpt lat="48.59307" lon="1.96895">
        <ele>123.19</ele>
        <time>2018-02-18T08:51:36Z</time>
      </trkpt>
      <trkpt lat="48.59306" lon="1.96898">
        <ele>123.19</ele>
        <time>2018-02-18T08:51:37Z</time>
      </trkpt>
      <trkpt lat="48.59295" lon="1.96923">
        <ele>121.74</ele>
        <time>2018-02-18T08:51:48Z</time>
      </trkpt>
      <trkpt lat="48.59293" lon="1.96926">
        <ele>121.26</ele>
        <time>2018-02-18T08:51:51Z</time>
      </trkpt>
      <trkpt lat="48.59283" lon="1.96946">
        <ele>119.34</ele>
        <time>2018-02-18T08:52:02Z</time>
      </trkpt>
      <trkpt lat="48.59277" lon="1.96959">
        <ele>116.94</ele>
        <time>2018-02-18T08:52:12Z</time>
      </trkpt>
      <trkpt lat="48.59275" lon="1.96962">
        <ele>116.46</ele>
        <time>2018-02-18T08:52:13Z</time>
      </trkpt>
      <trkpt lat="48.59271" lon="1.96971">
        <ele>115.5</ele>
        <time>2018-02-18T08:52:20Z</time>
      </trkpt>
      <trkpt lat="48.5927" lon="1.96974">
        <ele>115.01</ele>
        <time>2018-02-18T08:52:22Z</time>
      </trkpt>
      <trkpt lat="48.59264" lon="1.96985">
        <ele>114.05</ele>
        <time>2018-02-18T08:52:29Z</time>
      </trkpt>
      <trkpt lat="48.59262" lon="1.9699">
        <ele>114.05</ele>
        <time>2018-02-18T08:52:32Z</time>
      </trkpt>
      <trkpt lat="48.59258" lon="1.96998">
        <ele>113.57</ele>
        <time>2018-02-18T08:52:36Z</time>
      </trkpt>
      <trkpt lat="48.59252" lon="1.97011">
        <ele>113.09</ele>
        <time>2018-02-18T08:52:42Z</time>
      </trkpt>
      <trkpt lat="48.59247" lon="1.9702">
        <ele>113.09</ele>
        <time>2018-02-18T08:52:45Z</time>
      </trkpt>
      <trkpt lat="48.59236" lon="1.97046">
        <ele>112.61</ele>
        <time>2018-02-18T08:52:58Z</time>
      </trkpt>
      <trkpt lat="48.59224" lon="1.9707">
        <ele>112.13</ele>
        <time>2018-02-18T08:53:10Z</time>
      </trkpt>
      <trkpt lat="48.59224" lon="1.97071">
        <ele>112.13</ele>
        <time>2018-02-18T08:53:11Z</time>
      </trkpt>
      <trkpt lat="48.5922" lon="1.97084">
        <ele>111.65</ele>
        <time>2018-02-18T08:53:21Z</time>
      </trkpt>
      <trkpt lat="48.59211" lon="1.97101">
        <ele>111.17</ele>
        <time>2018-02-18T08:53:31Z</time>
      </trkpt>
      <trkpt lat="48.59196" lon="1.97134">
        <ele>110.69</ele>
        <time>2018-02-18T08:53:44Z</time>
      </trkpt>
      <trkpt lat="48.59192" lon="1.97143">
        <ele>109.73</ele>
        <time>2018-02-18T08:53:51Z</time>
      </trkpt>
      <trkpt lat="48.59184" lon="1.9716">
        <ele>108.29</ele>
        <time>2018-02-18T08:54:04Z</time>
      </trkpt>
      <trkpt lat="48.59173" lon="1.97184">
        <ele>107.32</ele>
        <time>2018-02-18T08:54:17Z</time>
      </trkpt>
      <trkpt lat="48.59165" lon="1.97199">
        <ele>106.36</ele>
        <time>2018-02-18T08:54:27Z</time>
      </trkpt>
      <trkpt lat="48.59152" lon="1.97225">
        <ele>106.36</ele>
        <time>2018-02-18T08:54:38Z</time>
      </trkpt>
      <trkpt lat="48.59139" lon="1.97253">
        <ele>106.36</ele>
        <time>2018-02-18T08:54:50Z</time>
      </trkpt>
      <trkpt lat="48.59131" lon="1.97271">
        <ele>105.88</ele>
        <time>2018-02-18T08:54:58Z</time>
      </trkpt>
      <trkpt lat="48.59127" lon="1.97278">
        <ele>105.88</ele>
        <time>2018-02-18T08:55:13Z</time>
      </trkpt>
      <trkpt lat="48.59125" lon="1.97286">
        <ele>105.4</ele>
        <time>2018-02-18T08:55:21Z</time>
      </trkpt>
      <trkpt lat="48.59119" lon="1.97295">
        <ele>104.44</ele>
        <time>2018-02-18T08:55:34Z</time>
      </trkpt>
      <trkpt lat="48.5912" lon="1.973">
        <ele>104.92</ele>
        <time>2018-02-18T08:55:44Z</time>
      </trkpt>
      <trkpt lat="48.59116" lon="1.97326">
        <ele>105.4</ele>
        <time>2018-02-18T08:55:56Z</time>
      </trkpt>
      <trkpt lat="48.59123" lon="1.97342">
        <ele>105.88</ele>
        <time>2018-02-18T08:56:09Z</time>
      </trkpt>
      <trkpt lat="48.59139" lon="1.97361">
        <ele>106.84</ele>
        <time>2018-02-18T08:56:25Z</time>
      </trkpt>
      <trkpt lat="48.59167" lon="1.97386">
        <ele>107.81</ele>
        <time>2018-02-18T08:56:39Z</time>
      </trkpt>
      <trkpt lat="48.5919" lon="1.97404">
        <ele>108.77</ele>
        <time>2018-02-18T08:56:53Z</time>
      </trkpt>
      <trkpt lat="48.59195" lon="1.97408">
        <ele>109.25</ele>
        <time>2018-02-18T08:56:57Z</time>
      </trkpt>
      <trkpt lat="48.59212" lon="1.9742">
        <ele>110.21</ele>
        <time>2018-02-18T08:57:12Z</time>
      </trkpt>
      <trkpt lat="48.59221" lon="1.97426">
        <ele>111.17</ele>
        <time>2018-02-18T08:57:20Z</time>
      </trkpt>
      <trkpt lat="48.59239" lon="1.9743">
        <ele>112.61</ele>
        <time>2018-02-18T08:57:33Z</time>
      </trkpt>
      <trkpt lat="48.59245" lon="1.9743">
        <ele>112.61</ele>
        <time>2018-02-18T08:57:45Z</time>
      </trkpt>
      <trkpt lat="48.59245" lon="1.97431">
        <ele>112.61</ele>
        <time>2018-02-18T08:58:03Z</time>
      </trkpt>
      <trkpt lat="48.59246" lon="1.97428">
        <ele>112.61</ele>
        <time>2018-02-18T08:58:19Z</time>
      </trkpt>
      <trkpt lat="48.59252" lon="1.97429">
        <ele>113.09</ele>
        <time>2018-02-18T08:58:34Z</time>
      </trkpt>
      <trkpt lat="48.59257" lon="1.97427">
        <ele>113.57</ele>
        <time>2018-02-18T08:58:40Z</time>
      </trkpt>
      <trkpt lat="48.59271" lon="1.97422">
        <ele>114.53</ele>
        <time>2018-02-18T08:58:54Z</time>
      </trkpt>
      <trkpt lat="48.59281" lon="1.97419">
        <ele>116.46</ele>
        <time>2018-02-18T08:59:05Z</time>
      </trkpt>
      <trkpt lat="48.59299" lon="1.9742">
        <ele>117.9</ele>
        <time>2018-02-18T08:59:16Z</time>
      </trkpt>
      <trkpt lat="48.59308" lon="1.97419">
        <ele>118.38</ele>
        <time>2018-02-18T08:59:20Z</time>
      </trkpt>
      <trkpt lat="48.59331" lon="1.9742">
        <ele>119.82</ele>
        <time>2018-02-18T08:59:33Z</time>
      </trkpt>
      <trkpt lat="48.59333" lon="1.9742">
        <ele>119.82</ele>
        <time>2018-02-18T08:59:35Z</time>
      </trkpt>
      <trkpt lat="48.59351" lon="1.97422">
        <ele>121.26</ele>
        <time>2018-02-18T08:59:50Z</time>
      </trkpt>
      <trkpt lat="48.5937" lon="1.9742">
        <ele>122.71</ele>
        <time>2018-02-18T09:00:06Z</time>
      </trkpt>
      <trkpt lat="48.59383" lon="1.97423">
        <ele>123.67</ele>
        <time>2018-02-18T09:00:18Z</time>
      </trkpt>
      <trkpt lat="48.59404" lon="1.97426">
        <ele>124.63</ele>
        <time>2018-02-18T09:00:29Z</time>
      </trkpt>
      <trkpt lat="48.59418" lon="1.97428">
        <ele>125.59</ele>
        <time>2018-02-18T09:00:36Z</time>
      </trkpt>
      <trkpt lat="48.59422" lon="1.97429">
        <ele>126.07</ele>
        <time>2018-02-18T09:00:39Z</time>
      </trkpt>
      <trkpt lat="48.5944" lon="1.97429">
        <ele>127.51</ele>
        <time>2018-02-18T09:00:51Z</time>
      </trkpt>
      <trkpt lat="48.59445" lon="1.9743">
        <ele>127.99</ele>
        <time>2018-02-18T09:00:57Z</time>
      </trkpt>
      <trkpt lat="48.59464" lon="1.97434">
        <ele>128.95</ele>
        <time>2018-02-18T09:01:13Z</time>
      </trkpt>
      <trkpt lat="48.59468" lon="1.97431">
        <ele>128.95</ele>
        <time>2018-02-18T09:01:17Z</time>
      </trkpt>
      <trkpt lat="48.59485" lon="1.97431">
        <ele>128.95</ele>
        <time>2018-02-18T09:01:30Z</time>
      </trkpt>
      <trkpt lat="48.59486" lon="1.97433">
        <ele>129.43</ele>
        <time>2018-02-18T09:01:49Z</time>
      </trkpt>
      <trkpt lat="48.59488" lon="1.97434">
        <ele>129.43</ele>
        <time>2018-02-18T09:02:08Z</time>
      </trkpt>
      <trkpt lat="48.5949" lon="1.97434">
        <ele>129.43</ele>
        <time>2018-02-18T09:02:29Z</time>
      </trkpt>
      <trkpt lat="48.5949" lon="1.97435">
        <ele>129.43</ele>
        <time>2018-02-18T09:02:30Z</time>
      </trkpt>
      <trkpt lat="48.59494" lon="1.97437">
        <ele>128.95</ele>
        <time>2018-02-18T09:02:34Z</time>
      </trkpt>
      <trkpt lat="48.59496" lon="1.97439">
        <ele>128.95</ele>
        <time>2018-02-18T09:02:36Z</time>
      </trkpt>
      <trkpt lat="48.59501" lon="1.97443">
        <ele>128.47</ele>
        <time>2018-02-18T09:02:40Z</time>
      </trkpt>
      <trkpt lat="48.59511" lon="1.9745">
        <ele>127.03</ele>
        <time>2018-02-18T09:02:50Z</time>
      </trkpt>
      <trkpt lat="48.59518" lon="1.97453">
        <ele>126.55</ele>
        <time>2018-02-18T09:02:55Z</time>
      </trkpt>
      <trkpt lat="48.59523" lon="1.97452">
        <ele>126.07</ele>
        <time>2018-02-18T09:02:58Z</time>
      </trkpt>
      <trkpt lat="48.59531" lon="1.97458">
        <ele>125.59</ele>
        <time>2018-02-18T09:03:03Z</time>
      </trkpt>
      <trkpt lat="48.59534" lon="1.97463">
        <ele>125.59</ele>
        <time>2018-02-18T09:03:06Z</time>
      </trkpt>
      <trkpt lat="48.59547" lon="1.97469">
        <ele>123.67</ele>
        <time>2018-02-18T09:03:17Z</time>
      </trkpt>
      <trkpt lat="48.59553" lon="1.97472">
        <ele>123.19</ele>
        <time>2018-02-18T09:03:21Z</time>
      </trkpt>
      <trkpt lat="48.59571" lon="1.97488">
        <ele>121.74</ele>
        <time>2018-02-18T09:03:35Z</time>
      </trkpt>
      <trkpt lat="48.59585" lon="1.97498">
        <ele>120.3</ele>
        <time>2018-02-18T09:03:49Z</time>
      </trkpt>
      <trkpt lat="48.59596" lon="1.97507">
        <ele>119.82</ele>
        <time>2018-02-18T09:04:01Z</time>
      </trkpt>
      <trkpt lat="48.59612" lon="1.97517">
        <ele>119.34</ele>
        <time>2018-02-18T09:04:11Z</time>
      </trkpt>
      <trkpt lat="48.59635" lon="1.97529">
        <ele>119.34</ele>
        <time>2018-02-18T09:04:24Z</time>
      </trkpt>
      <trkpt lat="48.5964" lon="1.97532">
        <ele>118.86</ele>
        <time>2018-02-18T09:04:29Z</time>
      </trkpt>
      <trkpt lat="48.59657" lon="1.97537">
        <ele>118.86</ele>
        <time>2018-02-18T09:04:44Z</time>
      </trkpt>
      <trkpt lat="48.59673" lon="1.97551">
        <ele>116.94</ele>
        <time>2018-02-18T09:04:57Z</time>
      </trkpt>
      <trkpt lat="48.59674" lon="1.97553">
        <ele>116.94</ele>
        <time>2018-02-18T09:04:58Z</time>
      </trkpt>
      <trkpt lat="48.59678" lon="1.97557">
        <ele>115.98</ele>
        <time>2018-02-18T09:05:02Z</time>
      </trkpt>
      <trkpt lat="48.59694" lon="1.97566">
        <ele>114.53</ele>
        <time>2018-02-18T09:05:16Z</time>
      </trkpt>
      <trkpt lat="48.59715" lon="1.97585">
        <ele>113.57</ele>
        <time>2018-02-18T09:05:32Z</time>
      </trkpt>
      <trkpt lat="48.59734" lon="1.97603">
        <ele>112.61</ele>
        <time>2018-02-18T09:05:46Z</time>
      </trkpt>
      <trkpt lat="48.59753" lon="1.9761">
        <ele>112.61</ele>
        <time>2018-02-18T09:05:58Z</time>
      </trkpt>
      <trkpt lat="48.59763" lon="1.97617">
        <ele>113.09</ele>
        <time>2018-02-18T09:06:07Z</time>
      </trkpt>
      <trkpt lat="48.59766" lon="1.97618">
        <ele>113.09</ele>
        <time>2018-02-18T09:06:09Z</time>
      </trkpt>
      <trkpt lat="48.59771" lon="1.9762">
        <ele>113.09</ele>
        <time>2018-02-18T09:06:12Z</time>
      </trkpt>
      <trkpt lat="48.59777" lon="1.97624">
        <ele>112.61</ele>
        <time>2018-02-18T09:06:16Z</time>
      </trkpt>
      <trkpt lat="48.59783" lon="1.97626">
        <ele>112.13</ele>
        <time>2018-02-18T09:06:20Z</time>
      </trkpt>
      <trkpt lat="48.59798" lon="1.97637">
        <ele>110.69</ele>
        <time>2018-02-18T09:06:35Z</time>
      </trkpt>
      <trkpt lat="48.59801" lon="1.97639">
        <ele>110.21</ele>
        <time>2018-02-18T09:06:38Z</time>
      </trkpt>
      <trkpt lat="48.59804" lon="1.9764">
        <ele>110.21</ele>
        <time>2018-02-18T09:06:40Z</time>
      </trkpt>
      <trkpt lat="48.59806" lon="1.97641">
        <ele>109.73</ele>
        <time>2018-02-18T09:06:42Z</time>
      </trkpt>
      <trkpt lat="48.59826" lon="1.97654">
        <ele>108.77</ele>
        <time>2018-02-18T09:06:56Z</time>
      </trkpt>
      <trkpt lat="48.5983" lon="1.97657">
        <ele>108.29</ele>
        <time>2018-02-18T09:06:58Z</time>
      </trkpt>
      <trkpt lat="48.59846" lon="1.97673">
        <ele>107.32</ele>
        <time>2018-02-18T09:07:14Z</time>
      </trkpt>
      <trkpt lat="48.59861" lon="1.97683">
        <ele>107.32</ele>
        <time>2018-02-18T09:07:23Z</time>
      </trkpt>
      <trkpt lat="48.59883" lon="1.97682">
        <ele>106.36</ele>
        <time>2018-02-18T09:07:38Z</time>
      </trkpt>
      <trkpt lat="48.59898" lon="1.97683">
        <ele>106.36</ele>
        <time>2018-02-18T09:07:49Z</time>
      </trkpt>
      <trkpt lat="48.59909" lon="1.97683">
        <ele>105.88</ele>
        <time>2018-02-18T09:08:00Z</time>
      </trkpt>
      <trkpt lat="48.59925" lon="1.97684">
        <ele>105.4</ele>
        <time>2018-02-18T09:08:12Z</time>
      </trkpt>
      <trkpt lat="48.59927" lon="1.97685">
        <ele>105.4</ele>
        <time>2018-02-18T09:08:15Z</time>
      </trkpt>
      <trkpt lat="48.59948" lon="1.97694">
        <ele>105.4</ele>
        <time>2018-02-18T09:08:28Z</time>
      </trkpt>
      <trkpt lat="48.59957" lon="1.97703">
        <ele>104.92</ele>
        <time>2018-02-18T09:08:36Z</time>
      </trkpt>
      <trkpt lat="48.59969" lon="1.97714">
        <ele>104.44</ele>
        <time>2018-02-18T09:08:43Z</time>
      </trkpt>
      <trkpt lat="48.59974" lon="1.97724">
        <ele>104.44</ele>
        <time>2018-02-18T09:08:48Z</time>
      </trkpt>
      <trkpt lat="48.5998" lon="1.9774">
        <ele>103.96</ele>
        <time>2018-02-18T09:08:56Z</time>
      </trkpt>
      <trkpt lat="48.5999" lon="1.97764">
        <ele>104.44</ele>
        <time>2018-02-18T09:09:10Z</time>
      </trkpt>
      <trkpt lat="48.59995" lon="1.97777">
        <ele>103.96</ele>
        <time>2018-02-18T09:09:21Z</time>
      </trkpt>
      <trkpt lat="48.60004" lon="1.97794">
        <ele>102.52</ele>
        <time>2018-02-18T09:09:34Z</time>
      </trkpt>
      <trkpt lat="48.60013" lon="1.97814">
        <ele>101.56</ele>
        <time>2018-02-18T09:09:48Z</time>
      </trkpt>
      <trkpt lat="48.60019" lon="1.97822">
        <ele>101.56</ele>
        <time>2018-02-18T09:09:53Z</time>
      </trkpt>
      <trkpt lat="48.60042" lon="1.97843">
        <ele>100.6</ele>
        <time>2018-02-18T09:10:06Z</time>
      </trkpt>
      <trkpt lat="48.60054" lon="1.97858">
        <ele>100.11</ele>
        <time>2018-02-18T09:10:22Z</time>
      </trkpt>
      <trkpt lat="48.60068" lon="1.97876">
        <ele>99.63</ele>
        <time>2018-02-18T09:10:34Z</time>
      </trkpt>
      <trkpt lat="48.60091" lon="1.97893">
        <ele>99.15</ele>
        <time>2018-02-18T09:10:45Z</time>
      </trkpt>
      <trkpt lat="48.60095" lon="1.97898">
        <ele>99.15</ele>
        <time>2018-02-18T09:10:48Z</time>
      </trkpt>
      <trkpt lat="48.60097" lon="1.979">
        <ele>99.15</ele>
        <time>2018-02-18T09:10:50Z</time>
      </trkpt>
      <trkpt lat="48.60114" lon="1.97915">
        <ele>98.19</ele>
        <time>2018-02-18T09:11:05Z</time>
      </trkpt>
      <trkpt lat="48.60122" lon="1.97927">
        <ele>97.71</ele>
        <time>2018-02-18T09:11:15Z</time>
      </trkpt>
      <trkpt lat="48.60139" lon="1.97943">
        <ele>97.23</ele>
        <time>2018-02-18T09:11:25Z</time>
      </trkpt>
      <trkpt lat="48.60151" lon="1.97955">
        <ele>96.75</ele>
        <time>2018-02-18T09:11:37Z</time>
      </trkpt>
      <trkpt lat="48.60154" lon="1.97958">
        <ele>97.23</ele>
        <time>2018-02-18T09:11:39Z</time>
      </trkpt>
      <trkpt lat="48.60169" lon="1.97971">
        <ele>97.23</ele>
        <time>2018-02-18T09:11:51Z</time>
      </trkpt>
      <trkpt lat="48.60186" lon="1.97989">
        <ele>96.27</ele>
        <time>2018-02-18T09:12:06Z</time>
      </trkpt>
      <trkpt lat="48.60199" lon="1.98001">
        <ele>96.27</ele>
        <time>2018-02-18T09:12:15Z</time>
      </trkpt>
      <trkpt lat="48.6022" lon="1.9802">
        <ele>95.31</ele>
        <time>2018-02-18T09:12:30Z</time>
      </trkpt>
      <trkpt lat="48.60224" lon="1.98026">
        <ele>95.31</ele>
        <time>2018-02-18T09:12:34Z</time>
      </trkpt>
      <trkpt lat="48.60227" lon="1.98032">
        <ele>94.83</ele>
        <time>2018-02-18T09:12:38Z</time>
      </trkpt>
      <trkpt lat="48.60229" lon="1.98034">
        <ele>94.83</ele>
        <time>2018-02-18T09:12:40Z</time>
      </trkpt>
      <trkpt lat="48.60241" lon="1.98046">
        <ele>93.87</ele>
        <time>2018-02-18T09:12:50Z</time>
      </trkpt>
      <trkpt lat="48.60253" lon="1.98061">
        <ele>93.39</ele>
        <time>2018-02-18T09:13:02Z</time>
      </trkpt>
      <trkpt lat="48.60263" lon="1.98073">
        <ele>92.9</ele>
        <time>2018-02-18T09:13:10Z</time>
      </trkpt>
      <trkpt lat="48.60267" lon="1.98077">
        <ele>92.9</ele>
        <time>2018-02-18T09:13:13Z</time>
      </trkpt>
      <trkpt lat="48.6027" lon="1.98081">
        <ele>92.9</ele>
        <time>2018-02-18T09:13:16Z</time>
      </trkpt>
      <trkpt lat="48.60274" lon="1.98086">
        <ele>92.9</ele>
        <time>2018-02-18T09:13:19Z</time>
      </trkpt>
      <trkpt lat="48.60287" lon="1.98098">
        <ele>92.42</ele>
        <time>2018-02-18T09:13:26Z</time>
      </trkpt>
      <trkpt lat="48.60294" lon="1.98105">
        <ele>92.42</ele>
        <time>2018-02-18T09:13:31Z</time>
      </trkpt>
      <trkpt lat="48.60308" lon="1.9812">
        <ele>92.42</ele>
        <time>2018-02-18T09:13:44Z</time>
      </trkpt>
      <trkpt lat="48.60322" lon="1.98134">
        <ele>91.94</ele>
        <time>2018-02-18T09:13:57Z</time>
      </trkpt>
      <trkpt lat="48.60334" lon="1.98151">
        <ele>91.46</ele>
        <time>2018-02-18T09:14:09Z</time>
      </trkpt>
      <trkpt lat="48.60337" lon="1.98159">
        <ele>90.98</ele>
        <time>2018-02-18T09:14:14Z</time>
      </trkpt>
      <trkpt lat="48.60345" lon="1.9817">
        <ele>91.46</ele>
        <time>2018-02-18T09:14:22Z</time>
      </trkpt>
      <trkpt lat="48.6035" lon="1.98185">
        <ele>90.98</ele>
        <time>2018-02-18T09:14:30Z</time>
      </trkpt>
      <trkpt lat="48.60353" lon="1.98204">
        <ele>91.46</ele>
        <time>2018-02-18T09:14:41Z</time>
      </trkpt>
      <trkpt lat="48.60355" lon="1.9821">
        <ele>91.46</ele>
        <time>2018-02-18T09:14:46Z</time>
      </trkpt>
      <trkpt lat="48.6035" lon="1.98227">
        <ele>91.94</ele>
        <time>2018-02-18T09:14:58Z</time>
      </trkpt>
      <trkpt lat="48.60344" lon="1.98237">
        <ele>92.9</ele>
        <time>2018-02-18T09:15:12Z</time>
      </trkpt>
      <trkpt lat="48.60334" lon="1.9826">
        <ele>95.79</ele>
        <time>2018-02-18T09:15:25Z</time>
      </trkpt>
      <trkpt lat="48.60323" lon="1.98269">
        <ele>97.71</ele>
        <time>2018-02-18T09:15:36Z</time>
      </trkpt>
      <trkpt lat="48.60311" lon="1.98277">
        <ele>100.11</ele>
        <time>2018-02-18T09:15:46Z</time>
      </trkpt>
      <trkpt lat="48.603" lon="1.98284">
        <ele>101.56</ele>
        <time>2018-02-18T09:15:58Z</time>
      </trkpt>
      <trkpt lat="48.60287" lon="1.98295">
        <ele>102.52</ele>
        <time>2018-02-18T09:16:06Z</time>
      </trkpt>
      <trkpt lat="48.60275" lon="1.98299">
        <ele>103</ele>
        <time>2018-02-18T09:16:13Z</time>
      </trkpt>
      <trkpt lat="48.60266" lon="1.98299">
        <ele>103.96</ele>
        <time>2018-02-18T09:16:21Z</time>
      </trkpt>
      <trkpt lat="48.60263" lon="1.98301">
        <ele>103.96</ele>
        <time>2018-02-18T09:16:23Z</time>
      </trkpt>
      <trkpt lat="48.6025" lon="1.98308">
        <ele>103.96</ele>
        <time>2018-02-18T09:16:37Z</time>
      </trkpt>
      <trkpt lat="48.60247" lon="1.98309">
        <ele>103.48</ele>
        <time>2018-02-18T09:16:40Z</time>
      </trkpt>
      <trkpt lat="48.60244" lon="1.9831">
        <ele>103</ele>
        <time>2018-02-18T09:16:42Z</time>
      </trkpt>
      <trkpt lat="48.60235" lon="1.98319">
        <ele>102.52</ele>
        <time>2018-02-18T09:16:53Z</time>
      </trkpt>
      <trkpt lat="48.60233" lon="1.98321">
        <ele>102.04</ele>
        <time>2018-02-18T09:16:56Z</time>
      </trkpt>
      <trkpt lat="48.60222" lon="1.98335">
        <ele>100.6</ele>
        <time>2018-02-18T09:17:07Z</time>
      </trkpt>
      <trkpt lat="48.6022" lon="1.98337">
        <ele>100.6</ele>
        <time>2018-02-18T09:17:09Z</time>
      </trkpt>
      <trkpt lat="48.60216" lon="1.98341">
        <ele>100.11</ele>
        <time>2018-02-18T09:17:12Z</time>
      </trkpt>
      <trkpt lat="48.60214" lon="1.98343">
        <ele>100.11</ele>
        <time>2018-02-18T09:17:14Z</time>
      </trkpt>
      <trkpt lat="48.60205" lon="1.98347">
        <ele>99.15</ele>
        <time>2018-02-18T09:17:20Z</time>
      </trkpt>
      <trkpt lat="48.60183" lon="1.9836">
        <ele>99.15</ele>
        <time>2018-02-18T09:17:34Z</time>
      </trkpt>
      <trkpt lat="48.60173" lon="1.98363">
        <ele>99.63</ele>
        <time>2018-02-18T09:17:46Z</time>
      </trkpt>
      <trkpt lat="48.60171" lon="1.98363">
        <ele>100.11</ele>
        <time>2018-02-18T09:18:05Z</time>
      </trkpt>
      <trkpt lat="48.60171" lon="1.98353">
        <ele>99.15</ele>
        <time>2018-02-18T09:18:29Z</time>
      </trkpt>
      <trkpt lat="48.60165" lon="1.98362">
        <ele>99.15</ele>
        <time>2018-02-18T09:18:42Z</time>
      </trkpt>
      <trkpt lat="48.60159" lon="1.98362">
        <ele>100.11</ele>
        <time>2018-02-18T09:18:47Z</time>
      </trkpt>
      <trkpt lat="48.60149" lon="1.98367">
        <ele>101.08</ele>
        <time>2018-02-18T09:18:58Z</time>
      </trkpt>
      <trkpt lat="48.60144" lon="1.98371">
        <ele>101.56</ele>
        <time>2018-02-18T09:19:02Z</time>
      </trkpt>
      <trkpt lat="48.60124" lon="1.9839">
        <ele>103.48</ele>
        <time>2018-02-18T09:19:15Z</time>
      </trkpt>
      <trkpt lat="48.60109" lon="1.98401">
        <ele>103.96</ele>
        <time>2018-02-18T09:19:28Z</time>
      </trkpt>
      <trkpt lat="48.60106" lon="1.98403">
        <ele>103.48</ele>
        <time>2018-02-18T09:19:31Z</time>
      </trkpt>
      <trkpt lat="48.60099" lon="1.98407">
        <ele>104.44</ele>
        <time>2018-02-18T09:19:36Z</time>
      </trkpt>
      <trkpt lat="48.60085" lon="1.98424">
        <ele>105.4</ele>
        <time>2018-02-18T09:19:48Z</time>
      </trkpt>
      <trkpt lat="48.60082" lon="1.98428">
        <ele>105.88</ele>
        <time>2018-02-18T09:19:55Z</time>
      </trkpt>
      <trkpt lat="48.6008" lon="1.98429">
        <ele>105.88</ele>
        <time>2018-02-18T09:19:57Z</time>
      </trkpt>
      <trkpt lat="48.60068" lon="1.98436">
        <ele>105.88</ele>
        <time>2018-02-18T09:20:07Z</time>
      </trkpt>
      <trkpt lat="48.60062" lon="1.98443">
        <ele>105.4</ele>
        <time>2018-02-18T09:20:12Z</time>
      </trkpt>
      <trkpt lat="48.6004" lon="1.98461">
        <ele>104.92</ele>
        <time>2018-02-18T09:20:26Z</time>
      </trkpt>
      <trkpt lat="48.6003" lon="1.98463">
        <ele>103.96</ele>
        <time>2018-02-18T09:20:37Z</time>
      </trkpt>
      <trkpt lat="48.60023" lon="1.98473">
        <ele>103</ele>
        <time>2018-02-18T09:20:48Z</time>
      </trkpt>
      <trkpt lat="48.60016" lon="1.98475">
        <ele>103</ele>
        <time>2018-02-18T09:21:02Z</time>
      </trkpt>
      <trkpt lat="48.60014" lon="1.98476">
        <ele>103</ele>
        <time>2018-02-18T09:21:05Z</time>
      </trkpt>
      <trkpt lat="48.60007" lon="1.98468">
        <ele>103.48</ele>
        <time>2018-02-18T09:21:13Z</time>
      </trkpt>
      <trkpt lat="48.59994" lon="1.98448">
        <ele>103.96</ele>
        <time>2018-02-18T09:21:27Z</time>
      </trkpt>
      <trkpt lat="48.59983" lon="1.98439">
        <ele>104.44</ele>
        <time>2018-02-18T09:21:35Z</time>
      </trkpt>
      <trkpt lat="48.59965" lon="1.98415">
        <ele>105.88</ele>
        <time>2018-02-18T09:21:51Z</time>
      </trkpt>
      <trkpt lat="48.5996" lon="1.98407">
        <ele>106.36</ele>
        <time>2018-02-18T09:21:56Z</time>
      </trkpt>
      <trkpt lat="48.59957" lon="1.98401">
        <ele>106.36</ele>
        <time>2018-02-18T09:21:59Z</time>
      </trkpt>
      <trkpt lat="48.59947" lon="1.98383">
        <ele>106.84</ele>
        <time>2018-02-18T09:22:07Z</time>
      </trkpt>
      <trkpt lat="48.59939" lon="1.98373">
        <ele>107.32</ele>
        <time>2018-02-18T09:22:14Z</time>
      </trkpt>
      <trkpt lat="48.59933" lon="1.98365">
        <ele>107.32</ele>
        <time>2018-02-18T09:22:21Z</time>
      </trkpt>
      <trkpt lat="48.59928" lon="1.98358">
        <ele>107.81</ele>
        <time>2018-02-18T09:22:25Z</time>
      </trkpt>
      <trkpt lat="48.59912" lon="1.98333">
        <ele>108.77</ele>
        <time>2018-02-18T09:22:39Z</time>
      </trkpt>
      <trkpt lat="48.59899" lon="1.98314">
        <ele>109.25</ele>
        <time>2018-02-18T09:22:51Z</time>
      </trkpt>
      <trkpt lat="48.59891" lon="1.98316">
        <ele>110.21</ele>
        <time>2018-02-18T09:23:00Z</time>
      </trkpt>
      <trkpt lat="48.59888" lon="1.98322">
        <ele>110.21</ele>
        <time>2018-02-18T09:23:05Z</time>
      </trkpt>
      <trkpt lat="48.59877" lon="1.98341">
        <ele>110.21</ele>
        <time>2018-02-18T09:23:14Z</time>
      </trkpt>
      <trkpt lat="48.59875" lon="1.98345">
        <ele>110.21</ele>
        <time>2018-02-18T09:23:16Z</time>
      </trkpt>
      <trkpt lat="48.59876" lon="1.98353">
        <ele>110.21</ele>
        <time>2018-02-18T09:23:24Z</time>
      </trkpt>
      <trkpt lat="48.59872" lon="1.98358">
        <ele>109.73</ele>
        <time>2018-02-18T09:23:29Z</time>
      </trkpt>
      <trkpt lat="48.59866" lon="1.9837">
        <ele>109.25</ele>
        <time>2018-02-18T09:23:36Z</time>
      </trkpt>
      <trkpt lat="48.5986" lon="1.98382">
        <ele>108.29</ele>
        <time>2018-02-18T09:23:44Z</time>
      </trkpt>
      <trkpt lat="48.5986" lon="1.98383">
        <ele>108.29</ele>
        <time>2018-02-18T09:23:45Z</time>
      </trkpt>
      <trkpt lat="48.59843" lon="1.98421">
        <ele>109.73</ele>
        <time>2018-02-18T09:23:55Z</time>
      </trkpt>
      <trkpt lat="48.59841" lon="1.98426">
        <ele>110.21</ele>
        <time>2018-02-18T09:23:57Z</time>
      </trkpt>
      <trkpt lat="48.59845" lon="1.98451">
        <ele>111.65</ele>
        <time>2018-02-18T09:24:09Z</time>
      </trkpt>
      <trkpt lat="48.59846" lon="1.98453">
        <ele>111.65</ele>
        <time>2018-02-18T09:24:11Z</time>
      </trkpt>
      <trkpt lat="48.59851" lon="1.98469">
        <ele>112.13</ele>
        <time>2018-02-18T09:24:21Z</time>
      </trkpt>
      <trkpt lat="48.59853" lon="1.98487">
        <ele>113.09</ele>
        <time>2018-02-18T09:24:29Z</time>
      </trkpt>
      <trkpt lat="48.5985" lon="1.98494">
        <ele>114.05</ele>
        <time>2018-02-18T09:24:33Z</time>
      </trkpt>
      <trkpt lat="48.59838" lon="1.98506">
        <ele>116.46</ele>
        <time>2018-02-18T09:24:46Z</time>
      </trkpt>
      <trkpt lat="48.59827" lon="1.98514">
        <ele>118.86</ele>
        <time>2018-02-18T09:24:56Z</time>
      </trkpt>
      <trkpt lat="48.59824" lon="1.98515">
        <ele>120.3</ele>
        <time>2018-02-18T09:24:59Z</time>
      </trkpt>
      <trkpt lat="48.59818" lon="1.98516">
        <ele>123.67</ele>
        <time>2018-02-18T09:25:07Z</time>
      </trkpt>
      <trkpt lat="48.59818" lon="1.98516">
        <ele>123.19</ele>
        <time>2018-02-18T09:25:08Z</time>
      </trkpt>
      <trkpt lat="48.59813" lon="1.98516">
        <ele>124.63</ele>
        <time>2018-02-18T09:25:13Z</time>
      </trkpt>
      <trkpt lat="48.59808" lon="1.98518">
        <ele>126.07</ele>
        <time>2018-02-18T09:25:18Z</time>
      </trkpt>
      <trkpt lat="48.59795" lon="1.98521">
        <ele>127.99</ele>
        <time>2018-02-18T09:25:30Z</time>
      </trkpt>
      <trkpt lat="48.59782" lon="1.98527">
        <ele>129.43</ele>
        <time>2018-02-18T09:25:43Z</time>
      </trkpt>
      <trkpt lat="48.59775" lon="1.98533">
        <ele>130.4</ele>
        <time>2018-02-18T09:25:57Z</time>
      </trkpt>
      <trkpt lat="48.59769" lon="1.98535">
        <ele>130.4</ele>
        <time>2018-02-18T09:26:12Z</time>
      </trkpt>
      <trkpt lat="48.59757" lon="1.98541">
        <ele>130.88</ele>
        <time>2018-02-18T09:26:24Z</time>
      </trkpt>
      <trkpt lat="48.59747" lon="1.98546">
        <ele>130.88</ele>
        <time>2018-02-18T09:26:36Z</time>
      </trkpt>
      <trkpt lat="48.59746" lon="1.98547">
        <ele>131.36</ele>
        <time>2018-02-18T09:26:40Z</time>
      </trkpt>
      <trkpt lat="48.59734" lon="1.98554">
        <ele>130.88</ele>
        <time>2018-02-18T09:26:52Z</time>
      </trkpt>
      <trkpt lat="48.59727" lon="1.98554">
        <ele>130.4</ele>
        <time>2018-02-18T09:26:57Z</time>
      </trkpt>
      <trkpt lat="48.59717" lon="1.98572">
        <ele>128.47</ele>
        <time>2018-02-18T09:27:11Z</time>
      </trkpt>
      <trkpt lat="48.59715" lon="1.9858">
        <ele>125.11</ele>
        <time>2018-02-18T09:27:22Z</time>
      </trkpt>
      <trkpt lat="48.59716" lon="1.98582">
        <ele>122.22</ele>
        <time>2018-02-18T09:27:32Z</time>
      </trkpt>
      <trkpt lat="48.59717" lon="1.98586">
        <ele>119.82</ele>
        <time>2018-02-18T09:27:39Z</time>
      </trkpt>
      <trkpt lat="48.59719" lon="1.98591">
        <ele>117.42</ele>
        <time>2018-02-18T09:27:47Z</time>
      </trkpt>
      <trkpt lat="48.59721" lon="1.986">
        <ele>114.53</ele>
        <time>2018-02-18T09:27:58Z</time>
      </trkpt>
      <trkpt lat="48.59719" lon="1.98616">
        <ele>112.13</ele>
        <time>2018-02-18T09:28:08Z</time>
      </trkpt>
      <trkpt lat="48.59711" lon="1.98636">
        <ele>110.69</ele>
        <time>2018-02-18T09:28:20Z</time>
      </trkpt>
      <trkpt lat="48.59702" lon="1.9865">
        <ele>110.21</ele>
        <time>2018-02-18T09:28:25Z</time>
      </trkpt>
      <trkpt lat="48.59687" lon="1.98673">
        <ele>110.21</ele>
        <time>2018-02-18T09:28:31Z</time>
      </trkpt>
      <trkpt lat="48.59661" lon="1.98691">
        <ele>110.21</ele>
        <time>2018-02-18T09:28:44Z</time>
      </trkpt>
      <trkpt lat="48.59646" lon="1.98692">
        <ele>110.69</ele>
        <time>2018-02-18T09:28:57Z</time>
      </trkpt>
      <trkpt lat="48.59639" lon="1.98695">
        <ele>109.73</ele>
        <time>2018-02-18T09:29:07Z</time>
      </trkpt>
      <trkpt lat="48.59631" lon="1.987">
        <ele>108.77</ele>
        <time>2018-02-18T09:29:18Z</time>
      </trkpt>
      <trkpt lat="48.59628" lon="1.98704">
        <ele>107.81</ele>
        <time>2018-02-18T09:29:29Z</time>
      </trkpt>
      <trkpt lat="48.59612" lon="1.98722">
        <ele>107.81</ele>
        <time>2018-02-18T09:29:41Z</time>
      </trkpt>
      <trkpt lat="48.59605" lon="1.98736">
        <ele>108.77</ele>
        <time>2018-02-18T09:29:50Z</time>
      </trkpt>
      <trkpt lat="48.59585" lon="1.98755">
        <ele>109.73</ele>
        <time>2018-02-18T09:30:02Z</time>
      </trkpt>
      <trkpt lat="48.59575" lon="1.98763">
        <ele>109.25</ele>
        <time>2018-02-18T09:30:08Z</time>
      </trkpt>
      <trkpt lat="48.59573" lon="1.98765">
        <ele>109.25</ele>
        <time>2018-02-18T09:30:10Z</time>
      </trkpt>
      <trkpt lat="48.59565" lon="1.98782">
        <ele>108.77</ele>
        <time>2018-02-18T09:30:21Z</time>
      </trkpt>
      <trkpt lat="48.59555" lon="1.98799">
        <ele>108.77</ele>
        <time>2018-02-18T09:30:29Z</time>
      </trkpt>
      <trkpt lat="48.59557" lon="1.98798">
        <ele>109.25</ele>
        <time>2018-02-18T09:30:31Z</time>
      </trkpt>
      <trkpt lat="48.59569" lon="1.98793">
        <ele>109.25</ele>
        <time>2018-02-18T09:30:43Z</time>
      </trkpt>
      <trkpt lat="48.59576" lon="1.98791">
        <ele>109.25</ele>
        <time>2018-02-18T09:30:48Z</time>
      </trkpt>
      <trkpt lat="48.59587" lon="1.98788">
        <ele>108.77</ele>
        <time>2018-02-18T09:30:58Z</time>
      </trkpt>
      <trkpt lat="48.59605" lon="1.98787">
        <ele>107.81</ele>
        <time>2018-02-18T09:31:09Z</time>
      </trkpt>
      <trkpt lat="48.59616" lon="1.98785">
        <ele>106.36</ele>
        <time>2018-02-18T09:31:19Z</time>
      </trkpt>
      <trkpt lat="48.59618" lon="1.98784">
        <ele>105.88</ele>
        <time>2018-02-18T09:31:21Z</time>
      </trkpt>
      <trkpt lat="48.59631" lon="1.98783">
        <ele>105.4</ele>
        <time>2018-02-18T09:31:27Z</time>
      </trkpt>
      <trkpt lat="48.59639" lon="1.98784">
        <ele>104.92</ele>
        <time>2018-02-18T09:31:31Z</time>
      </trkpt>
      <trkpt lat="48.59646" lon="1.98783">
        <ele>104.44</ele>
        <time>2018-02-18T09:31:35Z</time>
      </trkpt>
      <trkpt lat="48.5965" lon="1.98783">
        <ele>104.44</ele>
        <time>2018-02-18T09:31:38Z</time>
      </trkpt>
      <trkpt lat="48.59677" lon="1.98786">
        <ele>103.48</ele>
        <time>2018-02-18T09:31:50Z</time>
      </trkpt>
      <trkpt lat="48.59693" lon="1.9879">
        <ele>102.52</ele>
        <time>2018-02-18T09:32:03Z</time>
      </trkpt>
      <trkpt lat="48.597" lon="1.98786">
        <ele>101.08</ele>
        <time>2018-02-18T09:32:15Z</time>
      </trkpt>
      <trkpt lat="48.59716" lon="1.98781">
        <ele>100.6</ele>
        <time>2018-02-18T09:32:26Z</time>
      </trkpt>
      <trkpt lat="48.59723" lon="1.98783">
        <ele>100.11</ele>
        <time>2018-02-18T09:32:38Z</time>
      </trkpt>
      <trkpt lat="48.59727" lon="1.98782">
        <ele>99.15</ele>
        <time>2018-02-18T09:32:51Z</time>
      </trkpt>
      <trkpt lat="48.59733" lon="1.98783">
        <ele>98.67</ele>
        <time>2018-02-18T09:33:04Z</time>
      </trkpt>
      <trkpt lat="48.59739" lon="1.98782">
        <ele>97.71</ele>
        <time>2018-02-18T09:33:19Z</time>
      </trkpt>
      <trkpt lat="48.59745" lon="1.98771">
        <ele>96.27</ele>
        <time>2018-02-18T09:33:30Z</time>
      </trkpt>
      <trkpt lat="48.59762" lon="1.9877">
        <ele>94.83</ele>
        <time>2018-02-18T09:33:43Z</time>
      </trkpt>
      <trkpt lat="48.59775" lon="1.98768">
        <ele>94.83</ele>
        <time>2018-02-18T09:33:48Z</time>
      </trkpt>
      <trkpt lat="48.59805" lon="1.98765">
        <ele>93.39</ele>
        <time>2018-02-18T09:34:00Z</time>
      </trkpt>
      <trkpt lat="48.59836" lon="1.98763">
        <ele>92.42</ele>
        <time>2018-02-18T09:34:13Z</time>
      </trkpt>
      <trkpt lat="48.59844" lon="1.98761">
        <ele>92.42</ele>
        <time>2018-02-18T09:34:16Z</time>
      </trkpt>
      <trkpt lat="48.59869" lon="1.98758">
        <ele>91.94</ele>
        <time>2018-02-18T09:34:26Z</time>
      </trkpt>
      <trkpt lat="48.59901" lon="1.98759">
        <ele>90.98</ele>
        <time>2018-02-18T09:34:39Z</time>
      </trkpt>
      <trkpt lat="48.59917" lon="1.98757">
        <ele>90.02</ele>
        <time>2018-02-18T09:34:51Z</time>
      </trkpt>
      <trkpt lat="48.59919" lon="1.98751">
        <ele>89.54</ele>
        <time>2018-02-18T09:34:58Z</time>
      </trkpt>
      <trkpt lat="48.59931" lon="1.9874">
        <ele>89.06</ele>
        <time>2018-02-18T09:35:10Z</time>
      </trkpt>
      <trkpt lat="48.59959" lon="1.98736">
        <ele>88.58</ele>
        <time>2018-02-18T09:35:23Z</time>
      </trkpt>
      <trkpt lat="48.59989" lon="1.98735">
        <ele>88.1</ele>
        <time>2018-02-18T09:35:39Z</time>
      </trkpt>
      <trkpt lat="48.60008" lon="1.98729">
        <ele>87.62</ele>
        <time>2018-02-18T09:35:50Z</time>
      </trkpt>
      <trkpt lat="48.60031" lon="1.98723">
        <ele>88.1</ele>
        <time>2018-02-18T09:36:04Z</time>
      </trkpt>
      <trkpt lat="48.60051" lon="1.98713">
        <ele>89.06</ele>
        <time>2018-02-18T09:36:17Z</time>
      </trkpt>
      <trkpt lat="48.60058" lon="1.98708">
        <ele>89.06</ele>
        <time>2018-02-18T09:36:24Z</time>
      </trkpt>
      <trkpt lat="48.6007" lon="1.98699">
        <ele>89.54</ele>
        <time>2018-02-18T09:36:32Z</time>
      </trkpt>
      <trkpt lat="48.60074" lon="1.98698">
        <ele>89.54</ele>
        <time>2018-02-18T09:36:34Z</time>
      </trkpt>
      <trkpt lat="48.60084" lon="1.98691">
        <ele>89.54</ele>
        <time>2018-02-18T09:36:42Z</time>
      </trkpt>
      <trkpt lat="48.60106" lon="1.98684">
        <ele>89.54</ele>
        <time>2018-02-18T09:36:55Z</time>
      </trkpt>
      <trkpt lat="48.60128" lon="1.98673">
        <ele>89.54</ele>
        <time>2018-02-18T09:37:09Z</time>
      </trkpt>
      <trkpt lat="48.60142" lon="1.98665">
        <ele>89.06</ele>
        <time>2018-02-18T09:37:17Z</time>
      </trkpt>
      <trkpt lat="48.60154" lon="1.98653">
        <ele>88.58</ele>
        <time>2018-02-18T09:37:25Z</time>
      </trkpt>
      <trkpt lat="48.60172" lon="1.98634">
        <ele>87.62</ele>
        <time>2018-02-18T09:37:40Z</time>
      </trkpt>
      <trkpt lat="48.60179" lon="1.98627">
        <ele>86.66</ele>
        <time>2018-02-18T09:37:46Z</time>
      </trkpt>
      <trkpt lat="48.60183" lon="1.98622">
        <ele>86.66</ele>
        <time>2018-02-18T09:37:49Z</time>
      </trkpt>
      <trkpt lat="48.60195" lon="1.98614">
        <ele>86.18</ele>
        <time>2018-02-18T09:38:01Z</time>
      </trkpt>
      <trkpt lat="48.60206" lon="1.98606">
        <ele>86.18</ele>
        <time>2018-02-18T09:38:13Z</time>
      </trkpt>
      <trkpt lat="48.60227" lon="1.98597">
        <ele>84.73</ele>
        <time>2018-02-18T09:38:27Z</time>
      </trkpt>
      <trkpt lat="48.60231" lon="1.9859">
        <ele>84.73</ele>
        <time>2018-02-18T09:38:31Z</time>
      </trkpt>
      <trkpt lat="48.60238" lon="1.98582">
        <ele>84.73</ele>
        <time>2018-02-18T09:38:36Z</time>
      </trkpt>
      <trkpt lat="48.6025" lon="1.98564">
        <ele>84.25</ele>
        <time>2018-02-18T09:38:47Z</time>
      </trkpt>
      <trkpt lat="48.60264" lon="1.98547">
        <ele>84.25</ele>
        <time>2018-02-18T09:38:59Z</time>
      </trkpt>
      <trkpt lat="48.60272" lon="1.9854">
        <ele>84.73</ele>
        <time>2018-02-18T09:39:04Z</time>
      </trkpt>
      <trkpt lat="48.60276" lon="1.98537">
        <ele>84.73</ele>
        <time>2018-02-18T09:39:06Z</time>
      </trkpt>
      <trkpt lat="48.60289" lon="1.98522">
        <ele>85.21</ele>
        <time>2018-02-18T09:39:16Z</time>
      </trkpt>
      <trkpt lat="48.6029" lon="1.98517">
        <ele>84.73</ele>
        <time>2018-02-18T09:39:18Z</time>
      </trkpt>
      <trkpt lat="48.60294" lon="1.98491">
        <ele>85.69</ele>
        <time>2018-02-18T09:39:27Z</time>
      </trkpt>
      <trkpt lat="48.60305" lon="1.98467">
        <ele>86.18</ele>
        <time>2018-02-18T09:39:40Z</time>
      </trkpt>
      <trkpt lat="48.60313" lon="1.98456">
        <ele>85.69</ele>
        <time>2018-02-18T09:39:47Z</time>
      </trkpt>
      <trkpt lat="48.60325" lon="1.98445">
        <ele>85.21</ele>
        <time>2018-02-18T09:39:56Z</time>
      </trkpt>
      <trkpt lat="48.6033" lon="1.98441">
        <ele>85.21</ele>
        <time>2018-02-18T09:40:00Z</time>
      </trkpt>
      <trkpt lat="48.60345" lon="1.98426">
        <ele>84.25</ele>
        <time>2018-02-18T09:40:14Z</time>
      </trkpt>
      <trkpt lat="48.60356" lon="1.98414">
        <ele>82.81</ele>
        <time>2018-02-18T09:40:27Z</time>
      </trkpt>
      <trkpt lat="48.60361" lon="1.98406">
        <ele>82.33</ele>
        <time>2018-02-18T09:40:35Z</time>
      </trkpt>
      <trkpt lat="48.60374" lon="1.98398">
        <ele>81.37</ele>
        <time>2018-02-18T09:40:49Z</time>
      </trkpt>
      <trkpt lat="48.60381" lon="1.98386">
        <ele>80.89</ele>
        <time>2018-02-18T09:40:59Z</time>
      </trkpt>
      <trkpt lat="48.60388" lon="1.98377">
        <ele>80.89</ele>
        <time>2018-02-18T09:41:08Z</time>
      </trkpt>
      <trkpt lat="48.60408" lon="1.98368">
        <ele>80.41</ele>
        <time>2018-02-18T09:41:20Z</time>
      </trkpt>
      <trkpt lat="48.60429" lon="1.98365">
        <ele>80.41</ele>
        <time>2018-02-18T09:41:31Z</time>
      </trkpt>
      <trkpt lat="48.60435" lon="1.98365">
        <ele>80.41</ele>
        <time>2018-02-18T09:41:33Z</time>
      </trkpt>
      <trkpt lat="48.6045" lon="1.9836">
        <ele>80.41</ele>
        <time>2018-02-18T09:41:42Z</time>
      </trkpt>
      <trkpt lat="48.60465" lon="1.98356">
        <ele>80.89</ele>
        <time>2018-02-18T09:41:54Z</time>
      </trkpt>
      <trkpt lat="48.60474" lon="1.98354">
        <ele>80.89</ele>
        <time>2018-02-18T09:42:04Z</time>
      </trkpt>
      <trkpt lat="48.60479" lon="1.98353">
        <ele>80.89</ele>
        <time>2018-02-18T09:42:07Z</time>
      </trkpt>
      <trkpt lat="48.60497" lon="1.98349">
        <ele>82.33</ele>
        <time>2018-02-18T09:42:19Z</time>
      </trkpt>
      <trkpt lat="48.60507" lon="1.98347">
        <ele>81.37</ele>
        <time>2018-02-18T09:42:25Z</time>
      </trkpt>
      <trkpt lat="48.60518" lon="1.98343">
        <ele>81.37</ele>
        <time>2018-02-18T09:42:31Z</time>
      </trkpt>
      <trkpt lat="48.60524" lon="1.98339">
        <ele>81.37</ele>
        <time>2018-02-18T09:42:35Z</time>
      </trkpt>
      <trkpt lat="48.60537" lon="1.98337">
        <ele>81.85</ele>
        <time>2018-02-18T09:42:47Z</time>
      </trkpt>
      <trkpt lat="48.60547" lon="1.98331">
        <ele>81.37</ele>
        <time>2018-02-18T09:42:59Z</time>
      </trkpt>
      <trkpt lat="48.60562" lon="1.98325">
        <ele>80.89</ele>
        <time>2018-02-18T09:43:07Z</time>
      </trkpt>
      <trkpt lat="48.6058" lon="1.98318">
        <ele>80.41</ele>
        <time>2018-02-18T09:43:19Z</time>
      </trkpt>
      <trkpt lat="48.60592" lon="1.98309">
        <ele>79.93</ele>
        <time>2018-02-18T09:43:31Z</time>
      </trkpt>
      <trkpt lat="48.60599" lon="1.98305">
        <ele>79.45</ele>
        <time>2018-02-18T09:43:43Z</time>
      </trkpt>
      <trkpt lat="48.60608" lon="1.98299">
        <ele>79.45</ele>
        <time>2018-02-18T09:43:53Z</time>
      </trkpt>
      <trkpt lat="48.6062" lon="1.98289">
        <ele>78.97</ele>
        <time>2018-02-18T09:44:04Z</time>
      </trkpt>
      <trkpt lat="48.60639" lon="1.98269">
        <ele>78.97</ele>
        <time>2018-02-18T09:44:16Z</time>
      </trkpt>
      <trkpt lat="48.60652" lon="1.98258">
        <ele>78.97</ele>
        <time>2018-02-18T09:44:29Z</time>
      </trkpt>
      <trkpt lat="48.60663" lon="1.98253">
        <ele>78.97</ele>
        <time>2018-02-18T09:44:37Z</time>
      </trkpt>
      <trkpt lat="48.60695" lon="1.98236">
        <ele>79.45</ele>
        <time>2018-02-18T09:44:50Z</time>
      </trkpt>
      <trkpt lat="48.60706" lon="1.98219">
        <ele>79.45</ele>
        <time>2018-02-18T09:45:05Z</time>
      </trkpt>
      <trkpt lat="48.6072" lon="1.98201">
        <ele>78.48</ele>
        <time>2018-02-18T09:45:17Z</time>
      </trkpt>
      <trkpt lat="48.60747" lon="1.98192">
        <ele>78.48</ele>
        <time>2018-02-18T09:45:27Z</time>
      </trkpt>
      <trkpt lat="48.60786" lon="1.98165">
        <ele>78.48</ele>
        <time>2018-02-18T09:45:40Z</time>
      </trkpt>
      <trkpt lat="48.60791" lon="1.9815">
        <ele>78.48</ele>
        <time>2018-02-18T09:45:51Z</time>
      </trkpt>
      <trkpt lat="48.608" lon="1.9813">
        <ele>78</ele>
        <time>2018-02-18T09:46:01Z</time>
      </trkpt>
      <trkpt lat="48.60806" lon="1.98112">
        <ele>78</ele>
        <time>2018-02-18T09:46:13Z</time>
      </trkpt>
      <trkpt lat="48.60815" lon="1.98089">
        <ele>78</ele>
        <time>2018-02-18T09:46:26Z</time>
      </trkpt>
      <trkpt lat="48.60814" lon="1.98052">
        <ele>77.52</ele>
        <time>2018-02-18T09:46:36Z</time>
      </trkpt>
      <trkpt lat="48.60816" lon="1.98046">
        <ele>77.52</ele>
        <time>2018-02-18T09:46:38Z</time>
      </trkpt>
      <trkpt lat="48.60817" lon="1.98037">
        <ele>77.52</ele>
        <time>2018-02-18T09:46:41Z</time>
      </trkpt>
      <trkpt lat="48.60819" lon="1.9803">
        <ele>77.52</ele>
        <time>2018-02-18T09:46:44Z</time>
      </trkpt>
      <trkpt lat="48.60825" lon="1.98003">
        <ele>77.52</ele>
        <time>2018-02-18T09:46:56Z</time>
      </trkpt>
      <trkpt lat="48.60827" lon="1.97991">
        <ele>77.04</ele>
        <time>2018-02-18T09:47:13Z</time>
      </trkpt>
      <trkpt lat="48.60828" lon="1.9799">
        <ele>76.56</ele>
        <time>2018-02-18T09:47:29Z</time>
      </trkpt>
      <trkpt lat="48.60825" lon="1.97983">
        <ele>76.56</ele>
        <time>2018-02-18T09:47:47Z</time>
      </trkpt>
      <trkpt lat="48.60825" lon="1.97984">
        <ele>76.56</ele>
        <time>2018-02-18T09:47:58Z</time>
      </trkpt>
      <trkpt lat="48.6082" lon="1.97976">
        <ele>76.08</ele>
        <time>2018-02-18T09:48:12Z</time>
      </trkpt>
      <trkpt lat="48.60821" lon="1.97977">
        <ele>76.08</ele>
        <time>2018-02-18T09:48:34Z</time>
      </trkpt>
      <trkpt lat="48.60821" lon="1.97976">
        <ele>76.08</ele>
        <time>2018-02-18T09:48:52Z</time>
      </trkpt>
      <trkpt lat="48.60819" lon="1.97973">
        <ele>76.08</ele>
        <time>2018-02-18T09:49:20Z</time>
      </trkpt>
      <trkpt lat="48.60819" lon="1.97973">
        <ele>76.08</ele>
        <time>2018-02-18T09:49:38Z</time>
      </trkpt>
      <trkpt lat="48.60816" lon="1.9797">
        <ele>76.56</ele>
        <time>2018-02-18T09:49:57Z</time>
      </trkpt>
      <trkpt lat="48.60815" lon="1.97968">
        <ele>76.56</ele>
        <time>2018-02-18T09:50:07Z</time>
      </trkpt>
      <trkpt lat="48.60801" lon="1.97966">
        <ele>78</ele>
        <time>2018-02-18T09:50:19Z</time>
      </trkpt>
      <trkpt lat="48.60779" lon="1.97952">
        <ele>77.52</ele>
        <time>2018-02-18T09:50:39Z</time>
      </trkpt>
      <trkpt lat="48.60766" lon="1.97937">
        <ele>78</ele>
        <time>2018-02-18T09:50:51Z</time>
      </trkpt>
      <trkpt lat="48.6075" lon="1.97907">
        <ele>78.48</ele>
        <time>2018-02-18T09:51:11Z</time>
      </trkpt>
      <trkpt lat="48.60742" lon="1.97898">
        <ele>79.45</ele>
        <time>2018-02-18T09:51:30Z</time>
      </trkpt>
      <trkpt lat="48.60723" lon="1.97883">
        <ele>79.45</ele>
        <time>2018-02-18T09:51:45Z</time>
      </trkpt>
      <trkpt lat="48.6071" lon="1.9787">
        <ele>79.45</ele>
        <time>2018-02-18T09:52:04Z</time>
      </trkpt>
      <trkpt lat="48.60684" lon="1.9785">
        <ele>79.93</ele>
        <time>2018-02-18T09:52:22Z</time>
      </trkpt>
      <trkpt lat="48.60662" lon="1.97829">
        <ele>79.93</ele>
        <time>2018-02-18T09:52:40Z</time>
      </trkpt>
      <trkpt lat="48.60639" lon="1.97811">
        <ele>80.89</ele>
        <time>2018-02-18T09:53:00Z</time>
      </trkpt>
      <trkpt lat="48.60615" lon="1.97774">
        <ele>81.37</ele>
        <time>2018-02-18T09:53:18Z</time>
      </trkpt>
      <trkpt lat="48.60596" lon="1.97754">
        <ele>81.85</ele>
        <time>2018-02-18T09:53:32Z</time>
      </trkpt>
      <trkpt lat="48.6059" lon="1.9775">
        <ele>82.33</ele>
        <time>2018-02-18T09:53:36Z</time>
      </trkpt>
      <trkpt lat="48.60554" lon="1.97716">
        <ele>83.29</ele>
        <time>2018-02-18T09:53:58Z</time>
      </trkpt>
      <trkpt lat="48.60534" lon="1.97703">
        <ele>84.73</ele>
        <time>2018-02-18T09:54:17Z</time>
      </trkpt>
      <trkpt lat="48.60519" lon="1.97686">
        <ele>85.69</ele>
        <time>2018-02-18T09:54:29Z</time>
      </trkpt>
      <trkpt lat="48.60499" lon="1.97666">
        <ele>87.14</ele>
        <time>2018-02-18T09:54:48Z</time>
      </trkpt>
      <trkpt lat="48.60485" lon="1.9765">
        <ele>88.1</ele>
        <time>2018-02-18T09:55:04Z</time>
      </trkpt>
      <trkpt lat="48.60458" lon="1.97627">
        <ele>89.54</ele>
        <time>2018-02-18T09:55:23Z</time>
      </trkpt>
      <trkpt lat="48.60437" lon="1.97604">
        <ele>90.02</ele>
        <time>2018-02-18T09:55:41Z</time>
      </trkpt>
      <trkpt lat="48.60417" lon="1.97588">
        <ele>90.5</ele>
        <time>2018-02-18T09:56:00Z</time>
      </trkpt>
      <trkpt lat="48.60393" lon="1.97568">
        <ele>91.46</ele>
        <time>2018-02-18T09:56:18Z</time>
      </trkpt>
      <trkpt lat="48.60379" lon="1.97549">
        <ele>92.9</ele>
        <time>2018-02-18T09:56:32Z</time>
      </trkpt>
      <trkpt lat="48.60363" lon="1.97525">
        <ele>94.35</ele>
        <time>2018-02-18T09:56:51Z</time>
      </trkpt>
      <trkpt lat="48.60351" lon="1.9751">
        <ele>95.31</ele>
        <time>2018-02-18T09:57:06Z</time>
      </trkpt>
      <trkpt lat="48.60349" lon="1.97508">
        <ele>94.83</ele>
        <time>2018-02-18T09:57:07Z</time>
      </trkpt>
      <trkpt lat="48.60345" lon="1.97504">
        <ele>94.83</ele>
        <time>2018-02-18T09:57:09Z</time>
      </trkpt>
      <trkpt lat="48.60326" lon="1.97488">
        <ele>97.23</ele>
        <time>2018-02-18T09:57:25Z</time>
      </trkpt>
      <trkpt lat="48.6031" lon="1.97473">
        <ele>99.63</ele>
        <time>2018-02-18T09:57:41Z</time>
      </trkpt>
      <trkpt lat="48.60289" lon="1.97454">
        <ele>102.52</ele>
        <time>2018-02-18T09:57:55Z</time>
      </trkpt>
      <trkpt lat="48.60272" lon="1.97441">
        <ele>105.88</ele>
        <time>2018-02-18T09:58:08Z</time>
      </trkpt>
      <trkpt lat="48.60267" lon="1.97429">
        <ele>108.77</ele>
        <time>2018-02-18T09:58:17Z</time>
      </trkpt>
      <trkpt lat="48.60264" lon="1.97429">
        <ele>109.73</ele>
        <time>2018-02-18T09:58:21Z</time>
      </trkpt>
      <trkpt lat="48.60247" lon="1.97414">
        <ele>113.09</ele>
        <time>2018-02-18T09:58:38Z</time>
      </trkpt>
      <trkpt lat="48.60228" lon="1.97399">
        <ele>115.98</ele>
        <time>2018-02-18T09:58:54Z</time>
      </trkpt>
      <trkpt lat="48.60222" lon="1.97387">
        <ele>117.42</ele>
        <time>2018-02-18T09:59:12Z</time>
      </trkpt>
      <trkpt lat="48.60221" lon="1.97381">
        <ele>117.42</ele>
        <time>2018-02-18T09:59:36Z</time>
      </trkpt>
      <trkpt lat="48.60212" lon="1.97372">
        <ele>118.38</ele>
        <time>2018-02-18T09:59:53Z</time>
      </trkpt>
      <trkpt lat="48.60189" lon="1.97357">
        <ele>118.86</ele>
        <time>2018-02-18T10:00:09Z</time>
      </trkpt>
      <trkpt lat="48.60173" lon="1.97345">
        <ele>119.34</ele>
        <time>2018-02-18T10:00:23Z</time>
      </trkpt>
      <trkpt lat="48.60161" lon="1.97331">
        <ele>119.82</ele>
        <time>2018-02-18T10:00:41Z</time>
      </trkpt>
      <trkpt lat="48.60156" lon="1.97326">
        <ele>119.82</ele>
        <time>2018-02-18T10:00:52Z</time>
      </trkpt>
      <trkpt lat="48.60135" lon="1.97308">
        <ele>119.82</ele>
        <time>2018-02-18T10:01:09Z</time>
      </trkpt>
      <trkpt lat="48.60112" lon="1.97289">
        <ele>119.34</ele>
        <time>2018-02-18T10:01:26Z</time>
      </trkpt>
      <trkpt lat="48.60103" lon="1.97275">
        <ele>119.34</ele>
        <time>2018-02-18T10:01:41Z</time>
      </trkpt>
      <trkpt lat="48.60084" lon="1.97257">
        <ele>117.9</ele>
        <time>2018-02-18T10:02:00Z</time>
      </trkpt>
      <trkpt lat="48.60072" lon="1.97243">
        <ele>115.01</ele>
        <time>2018-02-18T10:02:15Z</time>
      </trkpt>
      <trkpt lat="48.60057" lon="1.97224">
        <ele>113.57</ele>
        <time>2018-02-18T10:02:32Z</time>
      </trkpt>
      <trkpt lat="48.60017" lon="1.97186">
        <ele>113.09</ele>
        <time>2018-02-18T10:02:47Z</time>
      </trkpt>
      <trkpt lat="48.60003" lon="1.97177">
        <ele>113.09</ele>
        <time>2018-02-18T10:02:55Z</time>
      </trkpt>
      <trkpt lat="48.5998" lon="1.97156">
        <ele>113.57</ele>
        <time>2018-02-18T10:03:13Z</time>
      </trkpt>
      <trkpt lat="48.59962" lon="1.97125">
        <ele>114.05</ele>
        <time>2018-02-18T10:03:28Z</time>
      </trkpt>
      <trkpt lat="48.59947" lon="1.97108">
        <ele>114.05</ele>
        <time>2018-02-18T10:03:37Z</time>
      </trkpt>
      <trkpt lat="48.59918" lon="1.97082">
        <ele>115.01</ele>
        <time>2018-02-18T10:03:58Z</time>
      </trkpt>
      <trkpt lat="48.599" lon="1.9706">
        <ele>115.01</ele>
        <time>2018-02-18T10:04:17Z</time>
      </trkpt>
      <trkpt lat="48.59881" lon="1.97042">
        <ele>115.98</ele>
        <time>2018-02-18T10:04:32Z</time>
      </trkpt>
      <trkpt lat="48.59858" lon="1.97026">
        <ele>115.98</ele>
        <time>2018-02-18T10:04:48Z</time>
      </trkpt>
      <trkpt lat="48.59836" lon="1.96999">
        <ele>115.98</ele>
        <time>2018-02-18T10:05:06Z</time>
      </trkpt>
      <trkpt lat="48.59813" lon="1.96971">
        <ele>116.94</ele>
        <time>2018-02-18T10:05:26Z</time>
      </trkpt>
      <trkpt lat="48.59807" lon="1.96966">
        <ele>116.94</ele>
        <time>2018-02-18T10:05:30Z</time>
      </trkpt>
      <trkpt lat="48.59783" lon="1.96949">
        <ele>117.9</ele>
        <time>2018-02-18T10:05:49Z</time>
      </trkpt>
      <trkpt lat="48.59772" lon="1.96935">
        <ele>117.9</ele>
        <time>2018-02-18T10:05:58Z</time>
      </trkpt>
      <trkpt lat="48.59755" lon="1.9691">
        <ele>117.9</ele>
        <time>2018-02-18T10:06:16Z</time>
      </trkpt>
      <trkpt lat="48.5973" lon="1.96889">
        <ele>117.42</ele>
        <time>2018-02-18T10:06:34Z</time>
      </trkpt>
      <trkpt lat="48.59707" lon="1.96866">
        <ele>116.46</ele>
        <time>2018-02-18T10:06:51Z</time>
      </trkpt>
      <trkpt lat="48.59705" lon="1.96864">
        <ele>116.46</ele>
        <time>2018-02-18T10:06:53Z</time>
      </trkpt>
      <trkpt lat="48.59686" lon="1.96844">
        <ele>115.98</ele>
        <time>2018-02-18T10:07:09Z</time>
      </trkpt>
      <trkpt lat="48.59683" lon="1.96843">
        <ele>115.98</ele>
        <time>2018-02-18T10:07:12Z</time>
      </trkpt>
      <trkpt lat="48.59679" lon="1.9684">
        <ele>116.46</ele>
        <time>2018-02-18T10:07:16Z</time>
      </trkpt>
      <trkpt lat="48.59656" lon="1.96818">
        <ele>118.38</ele>
        <time>2018-02-18T10:07:35Z</time>
      </trkpt>
      <trkpt lat="48.59635" lon="1.968">
        <ele>119.82</ele>
        <time>2018-02-18T10:07:52Z</time>
      </trkpt>
      <trkpt lat="48.59631" lon="1.96796">
        <ele>120.3</ele>
        <time>2018-02-18T10:07:56Z</time>
      </trkpt>
      <trkpt lat="48.59608" lon="1.96775">
        <ele>121.26</ele>
        <time>2018-02-18T10:08:15Z</time>
      </trkpt>
      <trkpt lat="48.59591" lon="1.96758">
        <ele>121.26</ele>
        <time>2018-02-18T10:08:31Z</time>
      </trkpt>
      <trkpt lat="48.59579" lon="1.96746">
        <ele>121.74</ele>
        <time>2018-02-18T10:08:46Z</time>
      </trkpt>
      <trkpt lat="48.59566" lon="1.9673">
        <ele>123.19</ele>
        <time>2018-02-18T10:08:58Z</time>
      </trkpt>
      <trkpt lat="48.59563" lon="1.96728">
        <ele>123.19</ele>
        <time>2018-02-18T10:09:00Z</time>
      </trkpt>
      <trkpt lat="48.59555" lon="1.9672">
        <ele>123.67</ele>
        <time>2018-02-18T10:09:08Z</time>
      </trkpt>
      <trkpt lat="48.59537" lon="1.96701">
        <ele>125.11</ele>
        <time>2018-02-18T10:09:24Z</time>
      </trkpt>
      <trkpt lat="48.59531" lon="1.96698">
        <ele>125.11</ele>
        <time>2018-02-18T10:09:28Z</time>
      </trkpt>
      <trkpt lat="48.59512" lon="1.96683">
        <ele>126.07</ele>
        <time>2018-02-18T10:09:45Z</time>
      </trkpt>
      <trkpt lat="48.59499" lon="1.96666">
        <ele>127.03</ele>
        <time>2018-02-18T10:10:01Z</time>
      </trkpt>
      <trkpt lat="48.59494" lon="1.96664">
        <ele>126.55</ele>
        <time>2018-02-18T10:10:06Z</time>
      </trkpt>
      <trkpt lat="48.59476" lon="1.96652">
        <ele>125.59</ele>
        <time>2018-02-18T10:10:22Z</time>
      </trkpt>
      <trkpt lat="48.59474" lon="1.9665">
        <ele>124.63</ele>
        <time>2018-02-18T10:10:24Z</time>
      </trkpt>
      <trkpt lat="48.59461" lon="1.96638">
        <ele>123.67</ele>
        <time>2018-02-18T10:10:32Z</time>
      </trkpt>
      <trkpt lat="48.59433" lon="1.96605">
        <ele>121.74</ele>
        <time>2018-02-18T10:10:52Z</time>
      </trkpt>
      <trkpt lat="48.59432" lon="1.96603">
        <ele>121.26</ele>
        <time>2018-02-18T10:10:53Z</time>
      </trkpt>
      <trkpt lat="48.59423" lon="1.96589">
        <ele>120.3</ele>
        <time>2018-02-18T10:11:02Z</time>
      </trkpt>
      <trkpt lat="48.5942" lon="1.96585">
        <ele>119.82</ele>
        <time>2018-02-18T10:11:05Z</time>
      </trkpt>
      <trkpt lat="48.59405" lon="1.96563">
        <ele>117.42</ele>
        <time>2018-02-18T10:11:20Z</time>
      </trkpt>
      <trkpt lat="48.59386" lon="1.96546">
        <ele>115.01</ele>
        <time>2018-02-18T10:11:37Z</time>
      </trkpt>
      <trkpt lat="48.59378" lon="1.96538">
        <ele>114.05</ele>
        <time>2018-02-18T10:11:50Z</time>
      </trkpt>
      <trkpt lat="48.59358" lon="1.96525">
        <ele>112.13</ele>
        <time>2018-02-18T10:12:07Z</time>
      </trkpt>
      <trkpt lat="48.59353" lon="1.96518">
        <ele>112.13</ele>
        <time>2018-02-18T10:12:12Z</time>
      </trkpt>
      <trkpt lat="48.59351" lon="1.96516">
        <ele>111.65</ele>
        <time>2018-02-18T10:12:14Z</time>
      </trkpt>
      <trkpt lat="48.59329" lon="1.96495">
        <ele>110.69</ele>
        <time>2018-02-18T10:12:33Z</time>
      </trkpt>
      <trkpt lat="48.59321" lon="1.96487">
        <ele>109.73</ele>
        <time>2018-02-18T10:12:41Z</time>
      </trkpt>
      <trkpt lat="48.5931" lon="1.96481">
        <ele>109.25</ele>
        <time>2018-02-18T10:12:47Z</time>
      </trkpt>
      <trkpt lat="48.59299" lon="1.96477">
        <ele>106.84</ele>
        <time>2018-02-18T10:13:04Z</time>
      </trkpt>
      <trkpt lat="48.59286" lon="1.96475">
        <ele>105.4</ele>
        <time>2018-02-18T10:13:23Z</time>
      </trkpt>
      <trkpt lat="48.59269" lon="1.96482">
        <ele>103.96</ele>
        <time>2018-02-18T10:13:34Z</time>
      </trkpt>
      <trkpt lat="48.5925" lon="1.96511">
        <ele>101.08</ele>
        <time>2018-02-18T10:13:54Z</time>
      </trkpt>
      <trkpt lat="48.59226" lon="1.9653">
        <ele>98.19</ele>
        <time>2018-02-18T10:14:13Z</time>
      </trkpt>
      <trkpt lat="48.59211" lon="1.96552">
        <ele>97.71</ele>
        <time>2018-02-18T10:14:28Z</time>
      </trkpt>
      <trkpt lat="48.59208" lon="1.96554">
        <ele>97.23</ele>
        <time>2018-02-18T10:14:29Z</time>
      </trkpt>
      <trkpt lat="48.59189" lon="1.96591">
        <ele>96.75</ele>
        <time>2018-02-18T10:14:47Z</time>
      </trkpt>
      <trkpt lat="48.59185" lon="1.96596">
        <ele>96.75</ele>
        <time>2018-02-18T10:14:49Z</time>
      </trkpt>
      <trkpt lat="48.59172" lon="1.96614">
        <ele>96.75</ele>
        <time>2018-02-18T10:15:08Z</time>
      </trkpt>
      <trkpt lat="48.59172" lon="1.96613">
        <ele>97.23</ele>
        <time>2018-02-18T10:15:31Z</time>
      </trkpt>
      <trkpt lat="48.59171" lon="1.96611">
        <ele>97.23</ele>
        <time>2018-02-18T10:15:52Z</time>
      </trkpt>
      <trkpt lat="48.59171" lon="1.96609">
        <ele>97.71</ele>
        <time>2018-02-18T10:16:08Z</time>
      </trkpt>
    </trkseg>
  </trk>
</gpx>